PTAO2: Poteau River, Poteau, OK

                                SHEF ID:       PTAO2     Poteau River at Poteau, OK
STATION TYPE:
Regulating: Stage = 20.00, Flow = 7395

PRECIP STAGE RIV-FLOW VOLTAGE BAT-LOAD
in ft cfs volt volt
Ccp-Rev Ccp-Rev Ccp-Rev Ccp-Rev Ccp-Rev
(America/Chicago)
05/05 00:00 0.00 9.21 2001 12.90 12.31
05/05 01:00 0.00 9.22 2005 12.88 12.28
05/05 02:00 0.00 9.23 2008 12.86 12.30
05/05 03:00 0.00 9.22 2005 12.86 12.30
05/05 04:00 0.00 9.20 1998 12.84 12.23
05/05 05:00 0.00 9.22 2005 12.82 12.21
05/05 06:00 0.00 9.21 2001 12.80 12.21
05/05 07:00 0.00 9.20 1998 12.80 12.24
05/05 08:00 0.00 9.20 1998 12.95 12.33
05/05 09:00 0.00 9.20 1998 13.12 12.47
05/05 10:00 0.00 9.20 1998 14.01 12.88
05/05 11:00 0.00 9.20 1998 14.05 13.03
05/05 12:00 0.00 9.20 1998 13.96 12.99
05/05 13:00 0.00 9.19 1994 13.47 12.86
05/05 14:00 0.00 9.17 1988 13.47 12.82
05/05 15:00 0.00 9.16 1984 13.37 12.78
05/05 16:00 0.00 9.12 1971 13.35 12.72
05/05 17:00 0.00 9.04 1951 13.35 12.70
05/05 18:00 0.00 8.87 1914 13.37 12.68
05/05 19:00 0.00 8.67 1870 13.41 12.69
05/05 20:00 0.00 8.42 1814 13.18 12.61
05/05 21:00 0.00 8.19 1763 13.03 12.44
05/05 22:00 0.00 7.95 1710 12.96 12.37
05/05 23:00 0.00 7.75 1665 12.90 12.34
Data processed at Wed 06May2026 04:48 GMT

NOTICE: If you are parsing this page

Please convert to using our Data API. Starting early 2026 we will be migrating to: https://water.usace.army.mil with modern pages rendered in JavaScript. When this migration completes you will no longer be able to scrape this page! CWMSDataAPI (CDA)

Timeseries IDs (TSIDs)

TSIDs used from left to right in the data table
POTE.Precip-Inc.Total.1Hour.1Hour.Ccp-Rev
POTE.Stage.Inst.1Hour.0.Ccp-Rev
POTE.Flow.Inst.1Hour.0.Ccp-Rev
POTE.Volt-Battery.Inst.1Hour.0.Ccp-Rev
POTE.Volt-Battery Load.Inst.1Hour.0.Ccp-Rev

                            

All information presented herein is the property of the government of the United States of America and may be revised or deleted at any time without prior notice. Dissemination of this information without the expressed written consent of the Public Affairs Office, Tulsa District U.S. Army Corps of Engineers is strictly prohibited. These data are gathered electronically and, as presented, have NOT undergone any form of quality control. These data are NOT guaranteed to be valid or correct.